EST,Max TemperatureF,Mean TemperatureF,Min TemperatureF,Max Dew PointF,MeanDew PointF,Min DewpointF,Max Humidity, Mean Humidity, Min Humidity, Max Sea Level PressureIn, Mean Sea Level PressureIn, Min Sea Level PressureIn, Max VisibilityMiles, Mean VisibilityMiles, Min VisibilityMiles, Max Wind SpeedMPH, Mean Wind SpeedMPH, Max Gust SpeedMPH,PrecipitationIn, CloudCover, Events, WindDirDegrees
2013-12-1,47,39,30,31,27,22,78,60,42,30.25,30.11,30.00,10,10,10,12,5,18,0.00,8,,203
2013-12-2,52,46,39,36,34,31,76,63,50,29.99,29.90,29.83,10,10,10,7,1,10,0.00,8,,256
2013-12-3,58,48,37,38,37,35,85,64,43,29.92,29.89,29.85,10,10,8,8,2,13,0.00,3,,63
2013-12-4,62,51,39,46,42,36,86,71,55,30.00,29.94,29.90,10,10,10,13,3,16,0.00,1,,148
2013-12-5,69,57,45,60,54,43,100,80,59,30.03,29.93,29.89,10,5,1,15,5,22,1.10,8,Fog-Rain,213
2013-12-6,45,38,30,43,34,28,100,93,85,30.31,30.13,30.02,10,6,2,15,8,21,1.09,8,Rain-Snow,358
2013-12-7,30,27,23,28,24,17,92,80,68,30.59,30.43,30.24,10,9,2,10,4,16,0.01,7,Snow,333
2013-12-8,37,29,21,35,24,16,92,82,72,30.57,30.32,30.07,10,6,0,13,5,17,0.10,7,Fog-Rain-Snow,58
2013-12-9,44,38,32,42,35,25,100,85,69,30.17,30.06,29.97,10,8,2,13,6,22,0.04,8,Rain,209
2013-12-10,32,29,26,27,22,13,78,67,55,30.31,30.10,30.01,10,6,0,16,5,24,0.04,6,Fog-Snow,272
2013-12-11,33,27,21,19,15,12,77,59,41,30.42,30.35,30.28,10,10,10,14,6,21,T,3,,229
2013-12-12,27,22,16,18,7,3,74,57,40,30.52,30.41,30.33,10,9,2,14,7,21,T,4,Snow,259
2013-12-13,38,30,22,16,11,6,57,46,35,30.32,30.28,30.24,10,10,10,14,5,22,0.00,0,,211
2013-12-14,45,39,32,41,31,15,92,70,47,30.25,30.00,29.69,10,9,5,18,6,26,0.31,8,Rain,146
2013-12-15,43,35,27,41,27,20,96,83,69,30.05,29.85,29.66,10,8,2,15,9,24,0.02,8,Rain-Snow,259
2013-12-16,30,27,24,28,23,19,100,88,75,30.18,30.11,30.04,10,4,1,13,3,18,0.06,8,Snow,293
2013-12-17,38,33,28,34,29,23,100,86,72,30.08,29.99,29.94,10,8,2,12,4,18,0.03,8,Rain,227
2013-12-18,33,30,26,23,21,18,81,70,59,30.25,30.17,30.06,10,9,3,14,6,20,T,6,,227
2013-12-19,58,45,32,32,23,10,59,46,32,30.17,30.11,30.06,10,10,3,17,6,28,0.00,0,,207
2013-12-20,60,54,47,49,37,22,72,50,28,30.06,29.99,29.93,10,10,5,15,7,23,0.03,7,Rain,203
2013-12-21,68,63,58,59,53,50,97,81,64,29.94,29.86,29.70,10,10,6,13,5,21,0.19,6,Rain,198
2013-12-22,74,66,57,58,53,49,90,70,49,29.96,29.85,29.63,10,10,6,28,8,44,0.22,6,Rain,206
2013-12-23,57,44,31,51,35,19,96,80,63,30.32,30.17,29.97,10,8,2,13,4,18,0.37,8,Rain-Snow,285
2013-12-24,31,24,17,25,17,6,92,69,46,30.55,30.35,30.23,10,6,0,15,6,23,0.03,7,Fog-Snow,271
2013-12-25,33,24,14,21,12,7,80,61,41,30.54,30.42,30.25,10,10,10,6,0,10,0.00,3,,55
2013-12-26,39,33,27,27,23,15,92,66,40,30.37,30.24,30.16,10,7,1,12,5,22,0.02,6,Snow,217
2013-12-27,45,35,24,19,18,14,81,55,28,30.43,30.37,30.33,10,10,10,15,6,21,0.00,3,,206
2013-12-28,51,44,36,25,21,18,48,42,36,30.32,30.24,30.10,10,10,10,15,6,22,0.00,0,,202
2013-12-29,46,43,40,43,38,21,100,70,40,30.06,29.81,29.65,10,6,1,10,4,20,0.85,8,Rain,280
2013-12-30,40,33,25,37,27,18,92,83,74,30.21,30.08,29.88,10,9,4,15,4,21,0.02,8,Snow,297
2013-12-31,28,26,24,24,19,15,85,74,63,30.36,30.21,30.08,10,8,2,15,7,26,T,7,Snow,225